createdAt,value
2017-08-15T00:00:18.392Z,18.99
2017-08-15T00:00:58.917Z,18.98
2017-08-15T00:01:39.420Z,19.02
2017-08-15T00:02:19.922Z,18.91
2017-08-15T00:03:00.443Z,18.95
2017-08-15T00:03:40.958Z,18.94
2017-08-15T00:04:21.504Z,18.95
2017-08-15T00:05:02.002Z,18.98
2017-08-15T00:05:42.505Z,19.02
2017-08-15T00:06:23.002Z,18.94
2017-08-15T00:07:03.517Z,18.94
2017-08-15T00:07:44.076Z,18.98
2017-08-15T00:08:24.595Z,18.99
2017-08-15T00:09:05.139Z,18.99
2017-08-15T00:09:45.671Z,18.99
2017-08-15T00:10:26.209Z,18.98
2017-08-15T00:11:06.726Z,18.99
2017-08-15T00:11:47.283Z,18.99
2017-08-15T00:12:27.778Z,18.95
2017-08-15T00:13:08.317Z,18.95
2017-08-15T00:13:48.812Z,18.99
2017-08-15T00:14:29.351Z,18.92
2017-08-15T00:15:09.877Z,18.94
2017-08-15T00:15:50.412Z,18.98
2017-08-15T00:16:30.931Z,18.94
2017-08-15T00:17:11.454Z,18.91
2017-08-15T00:17:52.002Z,19.02
2017-08-15T00:18:32.533Z,18.94
2017-08-15T00:19:13.086Z,19
2017-08-15T00:19:53.629Z,19
2017-08-15T00:20:34.165Z,19.02
2017-08-15T00:21:14.709Z,18.98
2017-08-15T00:21:55.251Z,19.02
2017-08-15T00:22:35.772Z,18.98
2017-08-15T00:23:16.313Z,19.06
2017-08-15T00:23:56.865Z,18.98
2017-08-15T00:24:37.406Z,18.91
2017-08-15T00:25:17.938Z,18.98
2017-08-15T00:25:58.484Z,18.99
2017-08-15T00:26:39.018Z,18.98
2017-08-15T00:27:19.558Z,19.04
2017-08-15T00:28:00.096Z,19.06
2017-08-15T00:28:40.628Z,19.08
2017-08-15T00:29:21.168Z,19.02
2017-08-15T00:30:01.707Z,19.06
2017-08-15T00:30:42.248Z,19.02
2017-08-15T00:31:22.787Z,19.11
2017-08-15T00:32:03.330Z,19.06
2017-08-15T00:32:43.858Z,19.04
2017-08-15T00:33:24.399Z,19.02
2017-08-15T00:34:04.932Z,19.06
2017-08-15T00:34:45.477Z,19.08
2017-08-15T00:35:26.012Z,19.06
2017-08-15T00:36:06.556Z,19.02
2017-08-15T00:36:47.105Z,19.07
2017-08-15T00:37:27.642Z,19.02
2017-08-15T00:38:08.155Z,19.08
2017-08-15T00:38:48.684Z,19.07
2017-08-15T00:39:29.224Z,19.18
2017-08-15T00:40:09.751Z,19.18
2017-08-15T00:40:50.252Z,19.18
2017-08-15T00:41:30.775Z,19.07
2017-08-15T00:42:11.293Z,19.1
2017-08-15T00:42:51.832Z,19.21
2017-08-15T00:43:32.375Z,19.14
2017-08-15T00:44:12.916Z,19.07
2017-08-15T00:44:53.441Z,19.11
2017-08-15T00:45:33.980Z,19.11
2017-08-15T00:46:14.529Z,19.14
2017-08-15T00:46:55.062Z,19.14
2017-08-15T00:47:35.591Z,19.08
2017-08-15T00:48:16.135Z,19.06
2017-08-15T00:48:56.677Z,19.07
2017-08-15T00:49:37.220Z,19.16
2017-08-15T00:50:17.745Z,19.07
2017-08-15T00:50:58.286Z,19.04
2017-08-15T00:51:38.828Z,19.07
2017-08-15T00:52:19.383Z,19.08
2017-08-15T00:52:59.919Z,19.06
2017-08-15T00:53:40.497Z,19.08
2017-08-15T00:54:20.983Z,19.04
2017-08-15T00:55:01.581Z,19.04
2017-08-15T00:55:42.077Z,19.07
2017-08-15T00:56:22.583Z,19.06
2017-08-15T00:57:03.120Z,19.11
2017-08-15T00:57:43.602Z,19.18
2017-08-15T00:58:24.121Z,19.1
2017-08-15T00:59:04.643Z,19.11
2017-08-15T00:59:45.214Z,19.08
2017-08-15T01:00:25.711Z,19.07
2017-08-15T01:01:06.236Z,19.13
2017-08-15T01:01:46.751Z,19.13
2017-08-15T01:02:27.264Z,19.19
2017-08-15T01:03:07.755Z,19.13
2017-08-15T01:03:48.265Z,19.13
2017-08-15T01:04:28.781Z,19.14
2017-08-15T01:05:09.264Z,19.18
2017-08-15T01:05:49.796Z,19.08
2017-08-15T01:06:30.352Z,19.08
2017-08-15T01:07:10.886Z,19.08
2017-08-15T01:07:51.392Z,19.13
2017-08-15T01:08:31.929Z,19.16
2017-08-15T01:09:12.464Z,19.11
2017-08-15T01:09:53.003Z,19.14
2017-08-15T01:10:33.537Z,19.11
2017-08-15T01:11:14.087Z,19.16
2017-08-15T01:11:54.606Z,19.04
2017-08-15T01:12:35.132Z,19.07
2017-08-15T01:13:15.683Z,19.07
2017-08-15T01:13:56.223Z,19.08
2017-08-15T01:14:36.760Z,19.08
2017-08-15T01:15:17.298Z,19.06
2017-08-15T01:15:57.835Z,19.14
2017-08-15T01:16:38.377Z,19.1
2017-08-15T01:17:18.963Z,19.13
2017-08-15T01:17:59.490Z,19.14
2017-08-15T01:18:40.029Z,19.11
2017-08-15T01:19:20.555Z,19.11
2017-08-15T01:20:01.090Z,19.04
2017-08-15T01:20:41.631Z,19.08
2017-08-15T01:21:22.166Z,19.08
2017-08-15T01:22:02.652Z,19.13
2017-08-15T01:22:43.163Z,19.07
2017-08-15T01:23:23.717Z,19.07
2017-08-15T01:24:04.265Z,19.04
2017-08-15T01:24:44.797Z,19
2017-08-15T01:25:25.300Z,18.92
2017-08-15T01:26:05.823Z,18.98
2017-08-15T01:26:46.361Z,19
2017-08-15T01:27:26.932Z,18.99
2017-08-15T01:28:07.413Z,18.84
2017-08-15T01:28:47.954Z,18.87
2017-08-15T01:29:28.472Z,18.84
2017-08-15T01:30:09.000Z,18.78
2017-08-15T01:30:49.549Z,18.76
2017-08-15T01:31:30.079Z,18.72
2017-08-15T01:32:10.578Z,18.73
2017-08-15T01:32:51.089Z,18.78
2017-08-15T01:33:31.610Z,18.73
2017-08-15T01:34:12.101Z,18.67
2017-08-15T01:34:52.632Z,18.67
2017-08-15T01:35:33.160Z,18.76
2017-08-15T01:36:13.656Z,18.76
2017-08-15T01:36:54.174Z,18.72
2017-08-15T01:37:34.675Z,18.66
2017-08-15T01:38:15.192Z,18.67
2017-08-15T01:38:55.705Z,18.73
2017-08-15T01:39:36.232Z,18.73
2017-08-15T01:40:16.772Z,18.69
2017-08-15T01:40:57.315Z,18.7
2017-08-15T01:41:37.865Z,18.69
2017-08-15T01:42:18.394Z,18.6
2017-08-15T01:42:58.933Z,18.65
2017-08-15T01:43:39.469Z,18.69
2017-08-15T01:44:20.013Z,18.67
2017-08-15T01:45:00.564Z,18.63
2017-08-15T01:45:41.136Z,18.65
2017-08-15T01:46:21.646Z,18.54
2017-08-15T01:47:02.172Z,18.48
2017-08-15T01:47:42.743Z,18.48
2017-08-15T01:48:23.281Z,18.5
2017-08-15T01:49:03.831Z,18.52
2017-08-15T01:49:44.321Z,18.47
2017-08-15T01:50:24.857Z,18.55
2017-08-15T01:51:05.384Z,18.51
2017-08-15T01:51:45.932Z,18.45
2017-08-15T01:52:26.407Z,18.45
2017-08-15T01:53:06.929Z,18.44
2017-08-15T01:53:47.409Z,18.45
2017-08-15T01:54:27.934Z,18.45
2017-08-15T01:55:08.473Z,18.41
2017-08-15T01:55:49.021Z,18.45
2017-08-15T01:56:29.521Z,18.45
2017-08-15T01:57:10.056Z,18.45
2017-08-15T01:57:50.589Z,18.48
2017-08-15T01:58:31.152Z,18.41
2017-08-15T01:59:11.716Z,18.51
2017-08-15T01:59:52.243Z,18.51
2017-08-15T02:00:32.786Z,18.42
2017-08-15T02:01:13.316Z,18.47
2017-08-15T02:01:53.880Z,18.35
2017-08-15T02:02:34.395Z,18.37
2017-08-15T02:03:14.949Z,18.35
2017-08-15T02:03:55.475Z,18.29
2017-08-15T02:04:35.981Z,18.42
2017-08-15T02:05:16.486Z,18.39
2017-08-15T02:05:56.987Z,18.42
2017-08-15T02:06:37.485Z,18.32
2017-08-15T02:07:18.007Z,18.26
2017-08-15T02:07:58.522Z,18.35
2017-08-15T02:08:39.013Z,18.33
2017-08-15T02:09:19.536Z,18.29
2017-08-15T02:10:00.033Z,18.36
2017-08-15T02:10:40.535Z,18.35
2017-08-15T02:11:21.085Z,18.36
2017-08-15T02:12:01.610Z,18.27
2017-08-15T02:12:42.134Z,18.26
2017-08-15T02:13:22.654Z,18.33
2017-08-15T02:14:03.179Z,18.26
2017-08-15T02:14:43.685Z,18.25
2017-08-15T02:15:24.203Z,18.26
2017-08-15T02:16:04.721Z,18.23
2017-08-15T02:16:45.237Z,18.25
2017-08-15T02:17:25.755Z,18.23
2017-08-15T02:18:06.272Z,18.18
2017-08-15T02:18:46.812Z,18.18
2017-08-15T02:19:27.351Z,18.29
2017-08-15T02:20:07.868Z,18.23
2017-08-15T02:20:48.389Z,18.18
2017-08-15T02:21:28.920Z,18.27
2017-08-15T02:22:09.443Z,18.25
2017-08-15T02:22:49.969Z,18.2
2017-08-15T02:23:30.493Z,18.23
2017-08-15T02:24:11.039Z,18.21
2017-08-15T02:24:51.590Z,18.17
2017-08-15T02:25:32.113Z,18.15
2017-08-15T02:26:12.641Z,18.15
2017-08-15T02:26:53.176Z,18.15
2017-08-15T02:27:33.698Z,18.12
2017-08-15T02:28:14.241Z,18.15
2017-08-15T02:28:54.786Z,18.15
2017-08-15T02:29:35.306Z,18.21
2017-08-15T02:30:15.832Z,18.18
2017-08-15T02:30:56.397Z,18.15
2017-08-15T02:31:36.928Z,18.12
2017-08-15T02:32:17.454Z,18.12
2017-08-15T02:32:57.995Z,18.12
2017-08-15T02:33:38.520Z,18.11
2017-08-15T02:34:19.048Z,18.11
2017-08-15T02:34:59.557Z,18.11
2017-08-15T02:35:40.079Z,18.17
2017-08-15T02:36:20.594Z,18.14
2017-08-15T02:37:01.088Z,18.15
2017-08-15T02:37:41.586Z,18.08
2017-08-15T02:38:22.105Z,18.08
2017-08-15T02:39:02.608Z,18.11
2017-08-15T02:39:43.151Z,18.08
2017-08-15T02:40:23.681Z,18.05
2017-08-15T02:41:04.181Z,18.05
2017-08-15T02:41:44.699Z,18.03
2017-08-15T02:42:25.237Z,18.08
2017-08-15T02:43:05.777Z,18.07
2017-08-15T02:43:46.297Z,18
2017-08-15T02:44:26.803Z,18.02
2017-08-15T02:45:07.320Z,18
2017-08-15T02:45:47.833Z,17.95
2017-08-15T02:46:28.350Z,17.97
2017-08-15T02:47:08.877Z,17.95
2017-08-15T02:47:49.416Z,17.93
2017-08-15T02:48:29.959Z,18.02
2017-08-15T02:49:10.498Z,17.99
2017-08-15T02:49:51.030Z,18.05
2017-08-15T02:50:31.571Z,18.05
2017-08-15T02:51:12.112Z,18.05
2017-08-15T02:51:52.642Z,18.02
2017-08-15T02:52:33.181Z,17.95
2017-08-15T02:53:13.710Z,18
2017-08-15T02:53:54.216Z,18.03
2017-08-15T02:54:34.740Z,17.99
2017-08-15T02:55:15.222Z,17.99
2017-08-15T02:55:55.727Z,18
2017-08-15T02:56:36.247Z,17.96
2017-08-15T02:57:16.791Z,17.99
2017-08-15T02:57:57.270Z,18.03
2017-08-15T02:58:37.775Z,17.95
2017-08-15T02:59:18.308Z,17.99
2017-08-15T02:59:58.826Z,17.99
2017-08-15T03:00:39.352Z,17.93
2017-08-15T03:01:19.884Z,17.99
2017-08-15T03:02:00.414Z,17.97
2017-08-15T03:02:40.959Z,17.97
2017-08-15T03:03:21.496Z,17.96
2017-08-15T03:04:02.040Z,18
2017-08-15T03:04:42.557Z,17.95
2017-08-15T03:05:23.076Z,17.97
2017-08-15T03:06:03.587Z,17.93
2017-08-15T03:06:44.097Z,17.95
2017-08-15T03:07:24.613Z,18.07
2017-08-15T03:08:05.122Z,17.99
2017-08-15T03:08:45.655Z,17.99
2017-08-15T03:09:26.164Z,18
2017-08-15T03:10:06.667Z,18.05
2017-08-15T03:10:47.192Z,18
2017-08-15T03:11:27.713Z,17.99
2017-08-15T03:12:08.227Z,17.96
2017-08-15T03:12:48.756Z,18
2017-08-15T03:13:29.246Z,17.95
2017-08-15T03:14:09.802Z,17.99
2017-08-15T03:14:50.259Z,17.95
2017-08-15T03:15:30.809Z,18.05
2017-08-15T03:16:11.257Z,17.99
2017-08-15T03:16:51.831Z,17.97
2017-08-15T03:17:32.347Z,18
2017-08-15T03:18:12.830Z,18
2017-08-15T03:18:53.387Z,18.03
2017-08-15T03:19:33.895Z,18.03
2017-08-15T03:20:14.402Z,18.11
2017-08-15T03:20:54.936Z,18.07
2017-08-15T03:21:35.464Z,18.1
2017-08-15T03:22:16.002Z,18.12
2017-08-15T03:22:56.543Z,18.15
2017-08-15T03:23:37.066Z,18.15
2017-08-15T03:24:17.607Z,18.14
2017-08-15T03:24:58.118Z,18.17
2017-08-15T03:25:38.620Z,18.15
2017-08-15T03:26:19.226Z,18.23
2017-08-15T03:26:59.741Z,18.18
2017-08-15T03:27:40.239Z,18.23
2017-08-15T03:28:20.761Z,18.29
2017-08-15T03:29:01.624Z,18.3
2017-08-15T03:29:42.477Z,18.25
2017-08-15T03:30:23.170Z,18.26
2017-08-15T03:31:03.720Z,18.37
2017-08-15T03:31:44.246Z,18.35
2017-08-15T03:32:24.871Z,18.33
2017-08-15T03:33:05.450Z,18.39
2017-08-15T03:33:45.990Z,18.32
2017-08-15T03:34:26.518Z,18.45
2017-08-15T03:35:07.012Z,18.42
2017-08-15T03:35:47.616Z,18.3
2017-08-15T03:36:28.112Z,18.39
2017-08-15T03:37:08.639Z,18.36
2017-08-15T03:37:49.181Z,18.32
2017-08-15T03:38:29.697Z,18.39
2017-08-15T03:39:10.214Z,18.33
2017-08-15T03:39:50.716Z,18.41
2017-08-15T03:40:31.249Z,18.32
2017-08-15T03:41:11.797Z,18.41
2017-08-15T03:41:52.303Z,18.35
2017-08-15T03:42:32.791Z,18.33
2017-08-15T03:43:13.317Z,18.42
2017-08-15T03:43:53.867Z,18.35
2017-08-15T03:44:34.385Z,18.45
2017-08-15T03:45:14.950Z,18.35
2017-08-15T03:45:55.490Z,18.39
2017-08-15T03:46:35.997Z,18.33
2017-08-15T03:47:16.489Z,18.35
2017-08-15T03:47:57.087Z,18.41
2017-08-15T03:48:37.638Z,18.32
2017-08-15T03:49:18.151Z,18.29
2017-08-15T03:49:58.704Z,18.39
2017-08-15T03:50:39.314Z,18.37
2017-08-15T03:51:19.849Z,18.25
2017-08-15T03:52:00.364Z,18.27
2017-08-15T03:52:40.877Z,18.29
2017-08-15T03:53:21.347Z,18.25
2017-08-15T03:54:01.968Z,18.32
2017-08-15T03:54:44.376Z,18.26
2017-08-15T03:55:24.795Z,18.21
2017-08-15T03:56:05.398Z,18.25
2017-08-15T03:56:45.929Z,18.25
2017-08-15T03:57:26.453Z,18.26
2017-08-15T03:58:06.970Z,18.26
2017-08-15T03:58:47.466Z,18.29
2017-08-15T03:59:28.012Z,18.26
2017-08-15T04:00:08.572Z,18.32
2017-08-15T04:00:49.115Z,18.3
2017-08-15T04:01:29.590Z,18.32
2017-08-15T04:02:10.119Z,18.3
2017-08-15T04:02:50.665Z,18.18
2017-08-15T04:03:31.253Z,18.21
2017-08-15T04:04:12.102Z,18.2
2017-08-15T04:04:52.494Z,18.23
2017-08-15T04:05:33.065Z,18.18
2017-08-15T04:06:13.525Z,18.23
2017-08-15T04:06:54.121Z,18.17
2017-08-15T04:07:34.648Z,18.14
2017-08-15T04:08:15.104Z,18.18
2017-08-15T04:08:55.749Z,18.17
2017-08-15T04:09:36.245Z,18.15
2017-08-15T04:10:16.715Z,18.12
2017-08-15T04:10:57.255Z,18.12
2017-08-15T04:11:37.731Z,18.07
2017-08-15T04:12:20.128Z,18.08
2017-08-15T04:13:00.663Z,18.11
2017-08-15T04:13:41.209Z,18.1
2017-08-15T04:14:21.736Z,18.07
2017-08-15T04:15:02.248Z,17.99
2017-08-15T04:15:42.785Z,18.03
2017-08-15T04:16:23.327Z,18
2017-08-15T04:17:03.816Z,18.03
2017-08-15T04:17:44.374Z,17.95
2017-08-15T04:18:24.928Z,17.96
2017-08-15T04:19:05.447Z,17.95
2017-08-15T04:19:46.124Z,18.07
2017-08-15T04:20:26.620Z,18
2017-08-15T04:21:07.998Z,17.96
2017-08-15T04:21:48.493Z,18
2017-08-15T04:22:29.016Z,17.93
2017-08-15T04:23:09.544Z,17.95
2017-08-15T04:23:50.071Z,17.97
2017-08-15T04:24:30.620Z,17.89
2017-08-15T04:25:11.141Z,17.92
2017-08-15T04:25:51.675Z,17.96
2017-08-15T04:26:32.219Z,17.92
2017-08-15T04:27:12.740Z,17.9
2017-08-15T04:27:53.293Z,17.97
2017-08-15T04:28:33.822Z,17.96
2017-08-15T04:29:14.360Z,17.86
2017-08-15T04:29:54.906Z,17.89
2017-08-15T04:30:35.445Z,17.96
2017-08-15T04:31:15.965Z,17.87
2017-08-15T04:31:56.518Z,17.89
2017-08-15T04:32:37.061Z,17.93
2017-08-15T04:33:17.614Z,17.78
2017-08-15T04:33:58.146Z,17.79
2017-08-15T04:34:38.692Z,17.77
2017-08-15T04:35:19.222Z,17.81
2017-08-15T04:35:59.752Z,17.81
2017-08-15T04:36:40.293Z,17.84
2017-08-15T04:37:20.770Z,17.81
2017-08-15T04:38:01.284Z,17.77
2017-08-15T04:38:41.795Z,17.71
2017-08-15T04:39:22.300Z,17.71
2017-08-15T04:40:02.817Z,17.7
2017-08-15T04:40:43.349Z,17.75
2017-08-15T04:41:23.848Z,17.62
2017-08-15T04:42:04.356Z,17.63
2017-08-15T04:42:44.940Z,17.68
2017-08-15T04:43:25.540Z,17.7
2017-08-15T04:44:06.054Z,17.62
2017-08-15T04:44:46.551Z,17.58
2017-08-15T04:45:27.024Z,17.59
2017-08-15T04:46:07.568Z,17.63
2017-08-15T04:46:48.049Z,17.56
2017-08-15T04:47:28.580Z,17.62
2017-08-15T04:48:09.105Z,17.56
2017-08-15T04:48:49.649Z,17.55
2017-08-15T04:49:30.202Z,17.56
2017-08-15T04:50:10.741Z,17.64
2017-08-15T04:50:51.296Z,17.58
2017-08-15T04:51:31.780Z,17.62
2017-08-15T04:52:12.277Z,17.62
2017-08-15T04:52:52.773Z,17.62
2017-08-15T04:53:33.308Z,17.58
2017-08-15T04:54:13.764Z,17.58
2017-08-15T04:54:54.269Z,17.63
2017-08-15T04:55:34.859Z,17.62
2017-08-15T04:56:15.402Z,17.55
2017-08-15T04:56:55.906Z,17.56
2017-08-15T04:57:36.424Z,17.56
2017-08-15T04:58:16.958Z,17.58
2017-08-15T04:58:57.463Z,17.56
2017-08-15T04:59:37.989Z,17.58
2017-08-15T05:00:18.590Z,17.54
2017-08-15T05:00:59.097Z,17.54
2017-08-15T05:01:39.641Z,17.55
2017-08-15T05:02:20.136Z,17.56
2017-08-15T05:03:00.604Z,17.56
2017-08-15T05:03:41.159Z,17.56
2017-08-15T05:04:21.677Z,17.55
2017-08-15T05:05:02.209Z,17.62
2017-08-15T05:05:42.709Z,17.59
2017-08-15T05:06:23.246Z,17.63
2017-08-15T05:07:03.808Z,17.56
2017-08-15T05:07:44.332Z,17.63
2017-08-15T05:08:24.862Z,17.58
2017-08-15T05:09:05.372Z,17.64
2017-08-15T05:09:45.875Z,17.55
2017-08-15T05:10:26.370Z,17.62
2017-08-15T05:11:06.905Z,17.55
2017-08-15T05:11:47.445Z,17.64
2017-08-15T05:12:28.021Z,17.63
2017-08-15T05:13:08.556Z,17.62
2017-08-15T05:13:49.113Z,17.72
2017-08-15T05:14:29.662Z,17.7
2017-08-15T05:15:10.208Z,17.64
2017-08-15T05:15:50.752Z,17.68
2017-08-15T05:16:31.310Z,17.68
2017-08-15T05:17:11.837Z,17.72
2017-08-15T05:17:52.404Z,17.68
2017-08-15T05:18:32.924Z,17.71
2017-08-15T05:19:13.460Z,17.68
2017-08-15T05:19:54.001Z,17.68
2017-08-15T05:20:34.521Z,17.71
2017-08-15T05:21:15.066Z,17.59
2017-08-15T05:21:55.625Z,17.64
2017-08-15T05:22:36.122Z,17.72
2017-08-15T05:23:16.862Z,17.74
2017-08-15T05:23:57.636Z,17.72
2017-08-15T05:24:38.150Z,17.72
2017-08-15T05:25:18.748Z,17.75
2017-08-15T05:25:59.251Z,17.74
2017-08-15T05:26:39.723Z,17.75
2017-08-15T05:27:20.238Z,17.78
2017-08-15T05:28:00.718Z,17.78
2017-08-15T05:28:41.220Z,17.79
2017-08-15T05:29:21.755Z,17.81
2017-08-15T05:30:02.285Z,17.78
2017-08-15T05:30:42.805Z,17.74
2017-08-15T05:31:23.371Z,17.77
2017-08-15T05:32:03.907Z,17.74
2017-08-15T05:32:44.372Z,17.74
2017-08-15T05:33:24.868Z,17.77
2017-08-15T05:34:05.341Z,17.75
2017-08-15T05:34:45.849Z,17.79
2017-08-15T05:35:26.363Z,17.92
2017-08-15T05:36:06.921Z,17.92
2017-08-15T05:36:47.460Z,17.89
2017-08-15T05:37:28.024Z,17.75
2017-08-15T05:38:08.579Z,17.9
2017-08-15T05:38:49.115Z,17.92
2017-08-15T05:39:29.640Z,17.81
2017-08-15T05:40:10.180Z,17.92
2017-08-15T05:40:50.744Z,17.9
2017-08-15T05:41:31.272Z,17.9
2017-08-15T05:42:11.822Z,17.93
2017-08-15T05:42:52.344Z,17.95
2017-08-15T05:43:32.880Z,17.9
2017-08-15T05:44:13.450Z,17.93
2017-08-15T05:44:53.979Z,17.99
2017-08-15T05:45:34.519Z,17.92
2017-08-15T05:46:15.069Z,18
2017-08-15T05:46:55.613Z,17.93
2017-08-15T05:47:36.149Z,17.95
2017-08-15T05:48:16.697Z,17.99
2017-08-15T05:48:57.242Z,17.95
2017-08-15T05:49:37.781Z,18.02
2017-08-15T05:50:18.285Z,17.95
2017-08-15T05:50:58.808Z,17.97
2017-08-15T05:51:39.313Z,17.9
2017-08-15T05:52:19.814Z,18.05
2017-08-15T05:53:00.259Z,17.97
2017-08-15T05:53:40.750Z,18.05
2017-08-15T05:54:21.281Z,18
2017-08-15T05:55:01.807Z,18
2017-08-15T05:55:42.332Z,18.03
2017-08-15T05:56:22.832Z,18.02
2017-08-15T05:57:03.309Z,18.07
2017-08-15T05:57:43.816Z,18.03
2017-08-15T05:58:24.311Z,18.08
2017-08-15T05:59:04.838Z,18.14
2017-08-15T05:59:45.412Z,18.03
2017-08-15T06:00:25.879Z,18.12
2017-08-15T06:01:06.372Z,18.14
2017-08-15T06:01:46.938Z,18.18
2017-08-15T06:02:27.447Z,18.15
2017-08-15T06:03:07.927Z,18.14
2017-08-15T06:03:48.412Z,18.11
2017-08-15T06:04:29.162Z,18.21
2017-08-15T06:05:09.681Z,18.2
2017-08-15T06:05:50.175Z,18.26
2017-08-15T06:06:30.691Z,18.23
2017-08-15T06:07:11.168Z,18.25
2017-08-15T06:07:51.709Z,18.32
2017-08-15T06:08:32.271Z,18.27
2017-08-15T06:09:12.842Z,18.27
2017-08-15T06:09:53.394Z,18.37
2017-08-15T06:10:33.921Z,18.35
2017-08-15T06:11:14.476Z,18.35
2017-08-15T06:11:55.006Z,18.32
2017-08-15T06:12:35.547Z,18.32
2017-08-15T06:13:16.079Z,18.3
2017-08-15T06:13:56.548Z,18.41
2017-08-15T06:14:37.064Z,18.32
2017-08-15T06:15:17.613Z,18.45
2017-08-15T06:15:58.073Z,18.45
2017-08-15T06:16:38.606Z,18.52
2017-08-15T06:17:19.079Z,18.54
2017-08-15T06:17:59.588Z,18.52
2017-08-15T06:18:40.063Z,18.6
2017-08-15T06:19:20.572Z,18.65
2017-08-15T06:20:01.114Z,18.62
2017-08-15T06:20:41.577Z,18.69
2017-08-15T06:21:22.064Z,18.75
2017-08-15T06:22:02.590Z,18.67
2017-08-15T06:22:43.127Z,18.78
2017-08-15T06:23:23.654Z,18.76
2017-08-15T06:24:04.157Z,18.78
2017-08-15T06:24:44.681Z,18.9
2017-08-15T06:25:25.258Z,18.92
2017-08-15T06:26:05.798Z,18.95
2017-08-15T06:26:46.324Z,18.98
2017-08-15T06:27:26.879Z,19.02
2017-08-15T06:28:07.496Z,19.06
2017-08-15T06:28:48.050Z,19.04
2017-08-15T06:29:28.625Z,19.16
2017-08-15T06:30:09.160Z,19.13
2017-08-15T06:30:49.686Z,19.16
2017-08-15T06:31:30.237Z,19.16
2017-08-15T06:32:10.788Z,19.29
2017-08-15T06:32:51.319Z,19.22
2017-08-15T06:33:31.870Z,19.36
2017-08-15T06:34:12.397Z,19.28
2017-08-15T06:34:52.964Z,19.41
2017-08-15T06:35:33.489Z,19.36
2017-08-15T06:36:14.019Z,19.44
2017-08-15T06:36:54.561Z,19.4
2017-08-15T06:37:35.095Z,19.47
2017-08-15T06:38:15.607Z,19.44
2017-08-15T06:38:57.600Z,19.61
2017-08-15T06:39:38.090Z,19.54
2017-08-15T06:40:18.605Z,19.62
2017-08-15T06:40:59.094Z,19.56
2017-08-15T06:41:39.597Z,19.65
2017-08-15T06:42:20.148Z,19.66
2017-08-15T06:43:00.694Z,19.74
2017-08-15T06:43:41.267Z,19.74
2017-08-15T06:44:21.742Z,19.65
2017-08-15T06:45:02.243Z,19.78
2017-08-15T06:45:42.749Z,19.78
2017-08-15T06:46:23.296Z,19.84
2017-08-15T06:47:03.845Z,19.83
2017-08-15T06:47:44.431Z,19.92
2017-08-15T06:48:24.933Z,19.91
2017-08-15T06:49:05.403Z,20.01
2017-08-15T06:49:45.938Z,20.05
2017-08-15T06:50:26.490Z,20.03
2017-08-15T06:51:07.013Z,20.02
2017-08-15T06:51:47.554Z,20.06
2017-08-15T06:52:28.071Z,20.1
2017-08-15T06:53:08.612Z,20.06
2017-08-15T06:53:49.148Z,20.16
2017-08-15T06:54:29.700Z,20.21
2017-08-15T06:55:10.280Z,20.21
2017-08-15T06:55:50.797Z,20.14
2017-08-15T06:56:32.450Z,20.16
2017-08-15T06:57:12.987Z,20.21
2017-08-15T06:57:54.116Z,20.23
2017-08-15T06:58:34.781Z,20.26
2017-08-15T06:59:15.364Z,20.26
2017-08-15T06:59:55.935Z,20.32
2017-08-15T07:00:37.152Z,20.23
2017-08-15T07:01:17.998Z,20.29
2017-08-15T07:01:58.606Z,20.41
2017-08-15T07:02:39.381Z,20.39
2017-08-15T07:03:19.807Z,20.43
2017-08-15T07:04:00.568Z,20.52
2017-08-15T07:04:41.546Z,20.51
2017-08-15T07:05:22.442Z,20.58
2017-08-15T07:06:03.065Z,20.57
2017-08-15T07:06:44.308Z,20.62
2017-08-15T07:07:24.869Z,20.61
2017-08-15T07:08:05.394Z,20.69
2017-08-15T07:08:45.985Z,20.72
2017-08-15T07:09:26.742Z,20.82
2017-08-15T07:10:07.340Z,20.88
2017-08-15T07:10:48.209Z,20.87
2017-08-15T07:11:28.996Z,20.89
2017-08-15T07:12:09.847Z,20.94
2017-08-15T07:12:51.399Z,20.92
2017-08-15T07:13:32.193Z,20.98
2017-08-15T07:14:15.156Z,20.98
2017-08-15T07:14:56.465Z,20.98
2017-08-15T07:15:37.152Z,20.95
2017-08-15T07:16:17.849Z,21.13
2017-08-15T07:16:58.848Z,21.17
2017-08-15T07:17:39.760Z,21.14
2017-08-15T07:18:20.559Z,21.1
2017-08-15T07:19:01.125Z,21.13
2017-08-15T07:19:41.632Z,21.19
2017-08-15T07:20:22.151Z,21.24
2017-08-15T07:21:02.733Z,21.35
2017-08-15T07:21:43.272Z,21.31
2017-08-15T07:22:23.913Z,21.32
2017-08-15T07:23:05.637Z,21.35
2017-08-15T07:23:46.428Z,21.38
2017-08-15T07:24:28.389Z,21.4
2017-08-15T07:25:10.958Z,21.46
2017-08-15T07:25:59.398Z,21.47
2017-08-15T07:26:39.953Z,21.52
2017-08-15T07:27:20.725Z,21.61
2017-08-15T07:28:01.863Z,21.61
2017-08-15T07:28:42.853Z,21.65
2017-08-15T07:29:23.468Z,21.64
2017-08-15T07:30:03.993Z,21.69
2017-08-15T07:30:44.532Z,21.71
2017-08-15T07:31:25.239Z,21.68
2017-08-15T07:32:05.898Z,21.67
2017-08-15T07:32:46.428Z,21.74
2017-08-15T07:33:26.973Z,21.71
2017-08-15T07:34:07.670Z,21.69
2017-08-15T07:34:48.213Z,21.72
2017-08-15T07:35:29.050Z,21.8
2017-08-15T07:36:09.596Z,21.8
2017-08-15T07:36:50.341Z,21.84
2017-08-15T07:37:30.908Z,21.8
2017-08-15T07:38:11.426Z,21.9
2017-08-15T07:38:51.973Z,21.88
2017-08-15T07:39:32.677Z,21.92
2017-08-15T07:40:13.337Z,21.92
2017-08-15T07:40:53.936Z,21.92
2017-08-15T07:41:34.721Z,21.94
2017-08-15T07:42:15.693Z,21.94
2017-08-15T07:42:56.234Z,21.96
2017-08-15T07:43:36.866Z,21.96
2017-08-15T07:44:17.449Z,22
2017-08-15T07:44:58.059Z,22.02
2017-08-15T07:45:38.671Z,22
2017-08-15T07:46:19.510Z,22.02
2017-08-15T07:47:00.021Z,21.9
2017-08-15T07:47:40.562Z,21.86
2017-08-15T07:48:21.200Z,21.98
2017-08-15T07:49:01.874Z,21.9
2017-08-15T07:49:42.471Z,21.96
2017-08-15T07:50:23.093Z,21.88
2017-08-15T07:51:03.632Z,21.92
2017-08-15T07:51:44.274Z,21.84
2017-08-15T07:52:24.884Z,21.92
2017-08-15T07:53:05.450Z,21.9
2017-08-15T07:53:45.992Z,21.91
2017-08-15T07:54:26.540Z,21.86
2017-08-15T07:55:07.072Z,21.88
2017-08-15T07:55:47.609Z,21.9
2017-08-15T07:56:28.225Z,21.88
2017-08-15T07:57:09.003Z,21.91
2017-08-15T07:57:49.673Z,21.86
2017-08-15T07:58:30.203Z,21.86
2017-08-15T07:59:10.910Z,21.9
2017-08-15T07:59:51.657Z,21.91
2017-08-15T08:00:32.169Z,21.91
2017-08-15T08:01:12.752Z,21.88
2017-08-15T08:01:53.287Z,21.88
2017-08-15T08:02:33.836Z,21.88
2017-08-15T08:03:14.376Z,21.92
2017-08-15T08:03:54.918Z,21.84
2017-08-15T08:04:35.457Z,21.91
2017-08-15T08:05:16.150Z,21.9
2017-08-15T08:05:56.684Z,21.9
2017-08-15T08:06:37.235Z,21.77
2017-08-15T08:07:17.779Z,21.82
2017-08-15T08:07:58.568Z,21.84
2017-08-15T08:08:39.061Z,21.84
2017-08-15T08:09:19.654Z,21.79
2017-08-15T08:10:00.153Z,21.84
2017-08-15T08:10:40.700Z,21.77
2017-08-15T08:11:21.234Z,21.82
2017-08-15T08:12:01.748Z,21.79
2017-08-15T08:12:42.226Z,21.82
2017-08-15T08:13:22.720Z,21.84
2017-08-15T08:14:03.275Z,21.83
2017-08-15T08:14:43.803Z,21.67
2017-08-15T08:15:24.339Z,21.75
2017-08-15T08:16:04.883Z,21.72
2017-08-15T08:16:45.412Z,21.71
2017-08-15T08:17:25.958Z,21.72
2017-08-15T08:18:06.501Z,21.69
2017-08-15T08:18:47.026Z,21.75
2017-08-15T08:19:27.577Z,21.77
2017-08-15T08:20:08.292Z,21.69
2017-08-15T08:20:49.061Z,21.69
2017-08-15T08:21:30.805Z,21.69
2017-08-15T08:22:11.627Z,21.68
2017-08-15T08:22:52.173Z,21.64
2017-08-15T08:23:35.715Z,21.67
2017-08-15T08:24:16.979Z,21.72
2017-08-15T08:24:57.704Z,21.67
2017-08-15T08:25:38.266Z,21.68
2017-08-15T08:26:18.780Z,21.68
2017-08-15T08:26:59.372Z,21.59
2017-08-15T08:27:39.974Z,21.65
2017-08-15T08:28:20.632Z,21.65
2017-08-15T08:29:01.187Z,21.65
2017-08-15T08:29:41.805Z,21.72
2017-08-15T08:30:22.259Z,21.62
2017-08-15T08:31:02.923Z,21.65
2017-08-15T08:31:43.671Z,21.64
2017-08-15T08:32:24.310Z,21.62
2017-08-15T08:33:05.256Z,21.62
2017-08-15T08:33:46.517Z,21.65
2017-08-15T08:34:26.918Z,21.59
2017-08-15T08:35:08.059Z,21.61
2017-08-15T08:35:48.739Z,21.61
2017-08-15T08:36:29.679Z,21.53
2017-08-15T08:37:12.065Z,21.61
2017-08-15T08:37:53.942Z,21.62
2017-08-15T08:38:37.841Z,21.61
2017-08-15T08:39:23.453Z,21.53
2017-08-15T08:40:04.461Z,21.5
2017-08-15T08:40:45.266Z,21.58
2017-08-15T08:41:25.982Z,21.56
2017-08-15T08:42:06.639Z,21.58
2017-08-15T08:42:47.290Z,21.54
2017-08-15T08:43:27.962Z,21.52
2017-08-15T08:44:08.807Z,21.52
2017-08-15T08:44:49.569Z,21.59
2017-08-15T08:45:30.222Z,21.53